Time;durP1;ratioP1;P1;durP2;ratioP2;P2;SDS_P1;SDS_P2;PMS_P1;PMS_P2;Temp;Humidity;BMP_temperature;BMP_pressure;BME280_temperature;BME280_humidity;BME280_pressure;Samples;Min_cycle;Max_cycle;Signal;HPM_P1;HPM_P2
2021/01/13 00:02:24;;;;;;;2.27;1.90;;;1.80;99.90;;;2.83;68.81;94160.38;5058639;28;20188;-67
2021/01/13 00:04:50;;;;;;;1.90;1.80;;;1.90;99.90;;;2.87;69.29;94148.50;5069539;28;20200;-70
2021/01/13 00:07:16;;;;;;;1.80;1.70;;;1.90;99.90;;;2.89;69.59;94146.44;5053160;28;20245;-69
2021/01/13 00:09:43;;;;;;;1.90;1.80;;;2.00;99.90;;;2.91;68.97;94147.06;5069130;28;20199;-69
2021/01/13 00:12:10;;;;;;;2.07;1.97;;;2.00;99.90;;;2.99;69.22;94152.03;5036628;28;20176;-70
2021/01/13 00:14:37;;;;;;;2.50;2.30;;;2.10;99.90;;;2.95;68.89;94150.06;5033791;28;20189;-66
2021/01/13 00:17:06;;;;;;;2.40;2.20;;;2.00;99.90;;;2.92;69.51;94145.25;5049533;28;20575;-70
2021/01/13 00:19:32;;;;;;;2.70;2.40;;;2.10;99.90;;;2.89;69.15;94149.06;5075403;28;20242;-68
2021/01/13 00:21:58;;;;;;;2.80;2.60;;;2.10;99.90;;;3.07;69.15;94161.44;5065724;28;20224;-68
2021/01/13 00:24:27;;;;;;;2.70;2.50;;;2.10;99.90;;;3.06;69.49;94149.34;5049733;28;20211;-66
2021/01/13 00:27:01;;;;;;;3.50;3.20;;;2.10;99.90;;;3.03;69.66;94150.59;5044553;28;20516;-66
2021/01/13 00:29:28;;;;;;;3.30;2.90;;;2.10;99.90;;;3.07;69.02;94143.91;5050343;28;20235;-68
2021/01/13 00:32:01;;;;;;;2.80;2.60;;;2.20;99.90;;;2.98;69.43;94149.63;5045480;28;20211;-68
2021/01/13 00:34:28;;;;;;;3.03;2.73;;;2.10;99.90;;;3.07;69.64;94151.78;5049911;28;20195;-66
2021/01/13 00:36:55;;;;;;;3.00;2.80;;;2.20;99.90;;;3.05;69.82;94142.53;5037492;28;20188;-66
2021/01/13 00:39:22;;;;;;;3.10;2.90;;;2.20;99.90;;;3.06;69.00;94159.81;5065408;28;20188;-68
2021/01/13 00:41:50;;;;;;;2.70;2.50;;;2.20;99.90;;;2.98;69.07;94149.63;5051421;28;20195;-66
2021/01/13 00:44:19;;;;;;;2.77;2.57;;;2.10;99.90;;;3.05;69.66;94160.88;5049728;28;20251;-66
2021/01/13 00:46:45;;;;;;;2.90;2.63;;;2.20;99.90;;;2.98;69.65;94149.63;5030056;28;20191;-66
2021/01/13 00:49:12;;;;;;;3.27;2.97;;;2.20;99.90;;;3.01;69.75;94149.22;5050573;28;20200;-67
2021/01/13 00:51:42;;;;;;;3.07;2.87;;;2.10;99.90;;;3.02;69.85;94151.59;5048616;28;20184;-67
2021/01/13 00:54:10;;;;;;;3.73;3.43;;;2.20;99.90;;;2.94;69.92;94151.88;5050774;28;20194;-66
2021/01/13 00:56:54;;;;;;;2.90;2.70;;;2.10;99.90;;;2.92;70.06;94166.97;5066721;28;20278;-67
2021/01/13 00:59:22;;;;;;;3.53;3.20;;;2.10;99.90;;;2.84;69.07;94153.34;5042957;28;20191;-67
2021/01/13 01:01:49;;;;;;;3.00;2.80;;;2.00;99.90;;;2.86;69.50;94165.19;5047312;28;20563;-67
2021/01/13 01:04:15;;;;;;;3.30;3.03;;;2.00;99.90;;;2.89;70.15;94167.38;5048583;28;20299;-66
2021/01/13 01:06:45;;;;;;;3.20;3.00;;;2.00;99.90;;;2.96;69.23;94169.97;5068239;28;20225;-67
2021/01/13 01:09:11;;;;;;;3.00;2.80;;;2.00;99.90;;;2.93;69.73;94170.38;5035932;28;20535;-67
2021/01/13 01:11:38;;;;;;;2.83;2.63;;;2.00;99.90;;;2.93;70.20;94173.81;5058493;28;20220;-66
2021/01/13 01:14:08;;;;;;;3.30;3.00;;;2.00;99.90;;;2.95;69.49;94168.38;5041575;28;20287;-68
2021/01/13 01:16:40;;;;;;;2.67;2.47;;;2.00;99.90;;;2.91;70.12;94182.88;5047751;28;20187;-69
2021/01/13 01:19:08;;;;;;;2.93;2.73;;;2.00;99.90;;;2.89;70.25;94185.69;5066838;28;20191;-66
2021/01/13 01:21:42;;;;;;;3.47;2.80;;;2.00;99.90;;;2.84;70.23;94182.94;5048809;28;20662;-68
2021/01/13 01:24:09;;;;;;;3.43;2.77;;;2.00;99.90;;;2.85;69.71;94195.00;5025803;28;20217;-68
2021/01/13 01:26:48;;;;;;;2.70;2.50;;;2.00;99.90;;;2.84;69.62;94198.63;5067093;28;20552;-67
2021/01/13 01:29:15;;;;;;;2.80;2.60;;;1.90;99.90;;;2.91;69.81;94190.75;5036989;28;20199;-68
2021/01/13 01:31:43;;;;;;;2.80;2.60;;;2.00;99.90;;;2.95;70.43;94203.22;5050439;28;20658;-68
2021/01/13 01:34:09;;;;;;;2.63;2.43;;;2.10;99.90;;;2.94;70.35;94193.75;5025318;28;20221;-69
2021/01/13 01:36:35;;;;;;;2.30;2.10;;;2.00;99.90;;;2.95;69.86;94195.34;5045029;28;20269;-65
2021/01/13 01:39:02;;;;;;;2.77;2.57;;;2.10;99.90;;;2.98;70.53;94191.50;5030826;28;20556;-69
2021/01/13 01:41:28;;;;;;;2.53;2.33;;;2.10;99.90;;;2.97;70.27;94198.56;5028182;28;20594;-68
2021/01/13 01:43:54;;;;;;;2.80;2.60;;;2.10;99.90;;;2.97;70.55;94209.03;5030117;28;20223;-66
2021/01/13 01:46:23;;;;;;;2.60;2.40;;;2.20;99.90;;;2.97;70.25;94202.97;5050207;28;20531;-66
2021/01/13 01:48:57;;;;;;;2.77;2.57;;;2.20;99.90;;;3.02;70.02;94213.63;5047975;28;20539;-66
2021/01/13 01:51:26;;;;;;;2.80;2.60;;;2.20;99.90;;;3.04;69.86;94212.41;5045221;28;20200;-70
2021/01/13 01:54:20;;;;;;;3.20;2.90;;;2.20;99.90;;;3.03;69.97;94229.13;5041589;28;20199;-67
2021/01/13 01:56:48;;;;;;;3.77;3.10;;;2.20;99.90;;;2.97;70.48;94229.97;5044974;28;20654;-68
2021/01/13 01:59:15;;;;;;;3.70;3.30;;;2.10;99.90;;;2.97;70.69;94211.66;5029215;28;20211;-70
2021/01/13 02:01:49;;;;;;;3.60;3.30;;;2.20;99.90;;;2.97;70.02;94218.69;5044433;28;20269;-66
2021/01/13 02:04:16;;;;;;;4.53;3.10;;;2.10;99.90;;;2.92;70.17;94221.91;5030934;28;20211;-67
2021/01/13 02:06:59;;;;;;;3.90;3.60;;;2.10;99.90;;;2.99;70.35;94227.94;5032319;28;20282;-67
2021/01/13 02:09:34;;;;;;;3.10;2.80;;;2.10;99.90;;;3.02;70.70;94222.28;5047572;28;20209;-67
2021/01/13 02:12:11;;;;;;;3.30;3.00;;;2.10;99.90;;;2.98;70.34;94218.50;5065866;28;20187;-67
2021/01/13 02:14:42;;;;;;;3.80;3.50;;;2.10;99.90;;;2.95;71.02;94226.78;5064928;28;20214;-69
2021/01/13 02:17:14;;;;;;;4.50;3.50;;;2.00;99.90;;;2.97;70.02;94216.06;5049440;28;20210;-69
2021/01/13 02:19:49;;;;;;;4.87;3.90;;;2.00;99.90;;;2.93;70.16;94220.91;5066532;28;20208;-71
2021/01/13 02:22:19;;;;;;;3.63;3.33;;;2.00;99.90;;;2.91;70.62;94204.63;5046317;28;20697;-70
2021/01/13 02:25:15;;;;;;;3.83;3.53;;;2.00;99.90;;;2.90;70.07;94212.69;5049683;28;20670;-70
2021/01/13 02:28:07;;;;;;;3.67;3.37;;;2.00;99.90;;;2.83;70.63;94223.19;5048703;28;20191;-70
2021/01/13 02:30:43;;;;;;;4.00;3.70;;;2.00;99.90;;;2.82;71.11;94221.56;5046232;28;20221;-70
2021/01/13 02:33:37;;;;;;;3.60;3.30;;;1.90;99.90;;;2.79;70.56;94221.19;5046677;28;20195;-70
2021/01/13 02:36:48;;;;;;;4.27;3.87;;;1.90;99.90;;;2.78;70.85;94243.16;5030468;28;20267;-70
2021/01/13 02:39:17;;;;;;;3.30;3.07;;;1.90;99.90;;;2.76;70.72;94227.66;5047498;28;20195;-68
2021/01/13 02:41:45;;;;;;;2.73;2.53;;;1.90;99.90;;;2.77;70.58;94223.22;5044422;28;20210;-70
2021/01/13 02:44:11;;;;;;;3.17;2.87;;;2.00;99.90;;;2.70;70.61;94246.78;5028368;28;20242;-67
2021/01/13 02:46:55;;;;;;;3.30;3.00;;;1.80;99.90;;;2.59;71.35;94240.41;5024213;28;20188;-67
2021/01/13 02:49:30;;;;;;;3.57;3.27;;;1.80;99.90;;;2.67;71.03;94246.41;5048774;28;20192;-68
2021/01/13 02:52:11;;;;;;;3.90;3.47;;;1.80;99.90;;;2.67;70.58;94244.59;5038380;28;20238;-70
2021/01/13 02:54:42;;;;;;;3.77;3.47;;;1.80;99.90;;;2.71;70.89;94248.41;5047405;28;20218;-69
2021/01/13 02:57:15;;;;;;;3.87;3.57;;;1.80;99.90;;;2.67;70.77;94241.97;5049988;28;20646;-69
2021/01/13 02:59:46;;;;;;;4.60;4.20;;;1.80;99.90;;;2.64;71.06;94252.88;5045859;28;20192;-68
2021/01/13 03:02:13;;;;;;;4.73;4.33;;;1.80;99.90;;;2.69;70.92;94239.94;5038078;28;20737;-69
2021/01/13 03:04:43;;;;;;;5.53;5.03;;;1.80;99.90;;;2.70;70.96;94254.66;5029438;28;20207;-69
2021/01/13 03:07:26;;;;;;;5.70;5.10;;;1.80;99.90;;;2.62;70.79;94262.72;5027755;28;20651;-71
2021/01/13 03:09:57;;;;;;;5.57;5.07;;;1.70;99.90;;;2.68;70.76;94256.69;5026540;28;20180;-70
2021/01/13 03:12:27;;;;;;;5.80;4.93;;;1.80;99.90;;;2.69;70.62;94262.69;5031308;28;20183;-70
2021/01/13 03:14:57;;;;;;;5.87;5.20;;;1.80;99.90;;;2.69;71.18;94265.31;5044006;28;20652;-71
2021/01/13 03:17:29;;;;;;;5.40;4.90;;;1.80;99.90;;;2.67;70.70;94262.09;5046533;28;20199;-70
2021/01/13 03:20:29;;;;;;;5.10;4.60;;;1.80;99.90;;;2.69;70.98;94279.19;5044958;28;20195;-71
2021/01/13 03:23:14;;;;;;;5.00;4.60;;;1.80;99.90;;;2.67;70.69;94273.38;5045550;28;20858;-69
2021/01/13 03:26:04;;;;;;;4.80;4.40;;;1.80;99.90;;;2.74;70.55;94279.41;5044773;28;20705;-70
2021/01/13 03:28:37;;;;;;;5.03;4.60;;;1.80;99.90;;;2.71;71.24;94271.97;5041865;28;20177;-70
2021/01/13 03:31:04;;;;;;;5.17;4.67;;;1.90;99.90;;;2.64;71.04;94270.38;5045878;28;20549;-68
2021/01/13 03:34:10;;;;;;;5.37;4.87;;;1.80;99.90;;;2.74;71.55;94283.81;5030233;28;20201;-68
2021/01/13 03:37:01;;;;;;;5.00;4.60;;;1.80;99.90;;;2.81;71.50;94281.97;5046923;28;20187;-70
2021/01/13 03:39:37;;;;;;;5.10;4.60;;;1.90;99.90;;;2.77;71.83;94268.50;5044153;28;20275;-71
2021/01/13 03:42:14;;;;;;;5.17;4.67;;;1.90;99.90;;;2.75;71.87;94269.75;5031488;28;20268;-69
2021/01/13 03:44:48;;;;;;;5.27;4.77;;;1.90;99.90;;;2.71;71.02;94271.97;5046047;28;20245;-69
2021/01/13 03:47:29;;;;;;;5.23;4.73;;;1.90;99.90;;;2.77;70.94;94270.31;5048694;28;20532;-69
2021/01/13 03:50:11;;;;;;;5.23;4.73;;;1.90;99.90;;;2.75;71.73;94269.75;5045954;28;20196;-69
2021/01/13 03:53:12;;;;;;;5.60;5.10;;;1.80;99.90;;;2.70;71.65;94272.97;5047625;28;20190;-69
2021/01/13 03:55:40;;;;;;;5.83;5.23;;;1.80;99.90;;;2.79;71.62;94270.91;5061309;28;20192;-69
2021/01/13 03:58:09;;;;;;;5.50;5.00;;;1.80;99.90;;;2.74;71.28;94270.75;5050741;28;20192;-69
2021/01/13 04:00:55;;;;;;;5.60;5.07;;;1.80;99.90;;;2.73;71.12;94275.16;5048382;28;20195;-69
2021/01/13 04:03:29;;;;;;;4.70;4.30;;;1.80;99.90;;;2.73;71.40;94264.69;5043955;28;20196;-69
2021/01/13 04:06:02;;;;;;;5.77;4.63;;;1.80;99.90;;;2.75;71.33;94270.53;5042263;28;20195;-71
2021/01/13 04:08:45;;;;;;;5.17;4.70;;;1.80;99.90;;;2.73;72.12;94263.88;5046157;28;20586;-70
2021/01/13 04:11:17;;;;;;;5.10;4.67;;;1.80;99.90;;;2.77;71.47;94280.78;5044745;28;20184;-69
2021/01/13 04:13:52;;;;;;;5.30;4.80;;;1.90;99.90;;;2.80;71.75;94281.19;5042671;28;20184;-69
2021/01/13 04:16:23;;;;;;;5.63;4.93;;;1.90;99.90;;;2.78;72.02;94280.59;5030928;28;20187;-68
2021/01/13 04:18:52;;;;;;;5.27;4.77;;;1.90;99.90;;;2.80;71.53;94277.75;5051654;28;20195;-70
2021/01/13 04:21:22;;;;;;;5.50;5.00;;;1.90;99.90;;;2.93;71.10;94272.47;5040148;28;20540;-69
2021/01/13 04:23:49;;;;;;;5.23;4.67;;;2.00;99.90;;;2.94;71.53;94272.25;5049239;28;20211;-70
2021/01/13 04:26:15;;;;;;;5.83;5.10;;;2.10;99.90;;;2.93;71.79;94278.50;5048221;28;20177;-70
2021/01/13 04:28:42;;;;;;;5.50;4.70;;;2.10;99.90;;;2.98;71.92;94272.66;5045844;28;20184;-68
2021/01/13 04:31:09;;;;;;;5.03;4.53;;;2.10;99.90;;;2.93;71.87;94262.81;5046272;28;20727;-69
2021/01/13 04:33:35;;;;;;;6.07;5.47;;;2.10;99.90;;;2.97;71.96;94271.03;5031625;28;20198;-69
2021/01/13 04:36:02;;;;;;;6.17;4.83;;;2.10;99.90;;;2.92;71.82;94269.03;5065572;28;20215;-70
2021/01/13 04:38:31;;;;;;;5.57;5.07;;;2.00;99.90;;;2.88;71.94;94267.88;5049784;28;20209;-68
2021/01/13 04:41:19;;;;;;;5.47;4.83;;;2.10;99.90;;;2.85;71.57;94286.59;5043835;28;20192;-67
2021/01/13 04:44:00;;;;;;;6.10;5.43;;;2.00;99.90;;;2.81;71.43;94297.69;5058025;28;20210;-68
2021/01/13 04:46:34;;;;;;;5.33;4.83;;;2.00;99.90;;;2.83;72.02;94293.84;5048019;28;20739;-69
2021/01/13 04:49:12;;;;;;;5.93;5.40;;;2.00;99.90;;;2.88;71.90;94298.47;5066191;28;20255;-69
2021/01/13 04:51:41;;;;;;;7.50;5.73;;;2.00;99.90;;;2.84;72.01;94282.38;5044422;28;20184;-70
2021/01/13 04:54:16;;;;;;;5.63;5.03;;;2.00;99.90;;;2.83;71.81;94296.47;5061728;28;20198;-68
2021/01/13 04:57:10;;;;;;;6.70;5.90;;;2.10;99.90;;;2.87;71.65;94299.47;5040415;28;20196;-68
2021/01/13 05:00:06;;;;;;;6.57;5.97;;;2.10;99.90;;;2.85;71.35;94298.88;5048287;28;20189;-70
2021/01/13 05:03:01;;;;;;;6.70;6.10;;;2.10;99.90;;;2.86;71.71;94303.09;5047950;28;20287;-70
2021/01/13 05:05:33;;;;;;;6.27;5.53;;;2.10;99.90;;;2.79;71.96;94290.03;5049507;28;20211;-68
2021/01/13 05:08:25;;;;;;;6.70;5.93;;;1.90;99.90;;;2.70;72.46;94293.09;5047651;28;20236;-68
2021/01/13 05:11:08;;;;;;;6.40;5.50;;;1.90;99.90;;;2.74;72.39;94312.59;5059062;28;20231;-68
2021/01/13 05:13:35;;;;;;;5.83;5.23;;;1.80;99.90;;;2.71;72.36;94299.94;5064234;28;20177;-67
2021/01/13 05:16:12;;;;;;;6.10;5.50;;;1.80;99.90;;;2.74;72.25;94308.19;5039555;28;21114;-70
2021/01/13 05:18:52;;;;;;;8.40;5.57;;;1.80;99.90;;;2.66;71.91;94321.47;5066494;28;20187;-68
2021/01/13 05:21:26;;;;;;;6.17;5.43;;;1.80;99.90;;;2.65;72.27;94306.81;5066584;28;20593;-71
2021/01/13 05:23:59;;;;;;;6.57;5.40;;;1.80;99.90;;;2.62;71.88;94304.56;5049159;28;20215;-69
2021/01/13 05:26:27;;;;;;;6.33;5.73;;;1.80;99.90;;;2.72;71.53;94325.88;5046303;28;20257;-68
2021/01/13 05:29:05;;;;;;;6.30;5.70;;;1.80;99.90;;;2.67;71.95;94324.91;5048782;28;20655;-70
2021/01/13 05:31:36;;;;;;;6.23;5.63;;;1.80;99.90;;;2.72;72.22;94325.88;5050226;28;20212;-67
2021/01/13 05:34:08;;;;;;;7.03;6.33;;;1.90;99.90;;;2.70;72.12;94322.69;5050521;28;20190;-67
2021/01/13 05:36:44;;;;;;;6.70;5.90;;;1.80;99.90;;;2.69;72.33;94320.25;5067619;28;20212;-68
2021/01/13 05:39:14;;;;;;;6.93;6.23;;;1.80;99.90;;;2.64;71.96;94330.53;5048685;28;20179;-68
2021/01/13 05:41:41;;;;;;;8.10;7.30;;;1.80;99.90;;;2.65;71.76;94346.03;5049999;28;20594;-68
2021/01/13 05:44:09;;;;;;;8.63;7.73;;;1.80;99.90;;;2.69;72.12;94338.56;5048863;28;20212;-68
2021/01/13 05:46:47;;;;;;;9.13;7.77;;;1.80;99.90;;;2.70;71.97;94332.34;5037675;28;20176;-69
2021/01/13 05:49:14;;;;;;;9.23;8.03;;;1.90;99.90;;;2.61;72.82;94336.19;5064626;28;20182;-69
2021/01/13 05:51:44;;;;;;;9.37;7.53;;;1.80;99.90;;;2.76;72.31;94352.44;5045679;28;20192;-68
2021/01/13 05:54:15;;;;;;;9.40;8.10;;;1.80;99.90;;;2.76;72.66;94340.16;5049917;28;20207;-68
2021/01/13 05:56:44;;;;;;;8.63;7.80;;;1.90;99.90;;;2.69;71.76;94349.84;5041969;28;20200;-68
2021/01/13 05:59:10;;;;;;;9.03;8.10;;;1.90;99.90;;;2.66;71.93;94345.03;5050055;28;20186;-69
2021/01/13 06:01:43;;;;;;;9.03;7.83;;;1.80;99.90;;;2.69;72.09;94354.25;5045440;28;20652;-69
2021/01/13 06:04:10;;;;;;;9.00;8.00;;;1.80;99.90;;;2.79;72.80;94359.88;5048674;28;20288;-69
2021/01/13 06:06:51;;;;;;;10.27;8.40;;;1.90;99.90;;;2.78;72.65;94350.44;5048607;28;20185;-69
2021/01/13 06:09:23;;;;;;;8.90;7.90;;;1.90;99.90;;;2.73;72.01;94358.88;5030941;28;20253;-69
2021/01/13 06:11:53;;;;;;;9.47;8.33;;;1.90;99.90;;;2.70;71.91;94359.31;5048099;28;20275;-70
2021/01/13 06:14:26;;;;;;;8.97;8.07;;;1.90;99.90;;;2.84;72.84;94354.84;5048526;28;20245;-69
2021/01/13 06:16:54;;;;;;;8.83;7.93;;;2.00;99.90;;;2.88;72.77;94356.84;5045004;28;20702;-70
2021/01/13 06:19:21;;;;;;;9.07;7.70;;;2.00;99.90;;;2.80;72.11;94358.88;5052886;28;20278;-69
2021/01/13 06:22:06;;;;;;;9.00;7.87;;;2.00;99.90;;;2.89;72.90;94366.28;5048247;28;20192;-69
2021/01/13 06:24:34;;;;;;;7.50;6.80;;;2.00;99.90;;;2.94;73.08;94349.97;5022501;28;20590;-68
2021/01/13 06:27:24;;;;;;;8.30;7.30;;;2.10;99.90;;;2.96;72.40;94361.03;5055678;28;20192;-68
2021/01/13 06:30:01;;;;;;;8.20;7.17;;;2.10;99.90;;;2.98;72.95;94372.13;5034496;28;20191;-68
2021/01/13 06:32:51;;;;;;;7.83;7.03;;;2.10;99.90;;;2.97;72.74;94370.50;5058087;28;20167;-69
2021/01/13 06:35:40;;;;;;;10.03;6.83;;;2.10;99.90;;;2.94;73.04;94369.13;5030330;28;20193;-69
2021/01/13 06:38:42;;;;;;;7.83;7.10;;;2.10;99.90;;;2.92;72.95;94378.97;5046063;28;20263;-68
2021/01/13 06:41:09;;;;;;;7.53;6.73;;;2.10;99.90;;;2.95;72.59;94360.25;5044254;28;20214;-69
2021/01/13 06:43:40;;;;;;;10.40;9.40;;;2.10;99.90;;;2.82;72.09;94365.50;5045330;28;20439;-72
2021/01/13 06:46:21;;;;;;;8.13;7.30;;;2.00;99.90;;;2.88;72.67;94358.66;5049067;28;20188;-72
2021/01/13 06:48:47;;;;;;;7.53;6.73;;;2.10;99.90;;;2.86;72.58;94377.19;5049012;28;20219;-71
2021/01/13 06:51:18;;;;;;;7.90;7.10;;;2.10;99.90;;;2.85;73.09;94370.34;5043328;28;20635;-70
2021/01/13 06:53:50;;;;;;;7.43;6.60;;;2.10;99.90;;;2.76;72.72;94371.56;5032255;28;20673;-68
2021/01/13 06:56:17;;;;;;;7.83;7.03;;;2.00;99.90;;;2.79;72.31;94386.03;5047121;28;20283;-70
2021/01/13 06:59:02;;;;;;;10.40;9.30;;;2.00;99.90;;;2.76;73.39;94387.25;5049396;28;20218;-70
2021/01/13 07:01:29;;;;;;;11.70;10.60;;;2.00;99.90;;;2.69;72.21;94381.22;5045249;28;20249;-69
2021/01/13 07:04:00;;;;;;;9.23;8.17;;;1.90;99.90;;;2.72;72.89;94369.59;5041989;28;20208;-68
2021/01/13 07:06:26;;;;;;;10.02;9.13;;;1.90;99.90;;;2.66;72.97;94371.19;5042945;28;20435;-67
2021/01/13 07:08:53;;;;;;;8.70;7.80;;;1.90;99.90;;;2.54;73.26;94372.81;5046621;28;20195;-67
2021/01/13 07:11:20;;;;;;;8.70;7.80;;;1.80;99.90;;;2.61;73.12;94378.03;5046110;28;20199;-66
2021/01/13 07:13:55;;;;;;;8.63;7.47;;;1.80;99.90;;;2.66;72.93;94383.44;5049938;28;20675;-66
2021/01/13 07:16:30;;;;;;;8.73;7.83;;;1.80;99.90;;;2.56;72.43;94389.91;5049374;28;20190;-67
2021/01/13 07:19:02;;;;;;;9.13;7.67;;;1.70;99.90;;;2.65;72.97;94402.78;5054402;28;20191;-66
2021/01/13 07:21:42;;;;;;;8.80;7.90;;;1.80;99.90;;;2.66;72.60;94407.81;5050894;28;20176;-67
2021/01/13 07:24:12;;;;;;;8.77;7.87;;;1.80;99.90;;;2.70;72.62;94398.56;5039581;28;20205;-67
2021/01/13 07:26:40;;;;;;;8.93;8.03;;;1.80;99.90;;;2.64;73.27;94394.13;5039218;28;20206;-67
2021/01/13 07:29:07;;;;;;;8.93;8.00;;;1.80;99.90;;;2.70;72.71;94401.16;5042319;28;20193;-65
2021/01/13 07:31:36;;;;;;;8.30;7.50;;;1.80;99.90;;;2.82;73.01;94407.38;5048245;28;20673;-65
2021/01/13 07:34:11;;;;;;;8.93;7.70;;;1.90;99.90;;;2.85;73.06;94409.59;5057521;28;20341;-69
2021/01/13 07:36:40;;;;;;;8.43;7.43;;;2.00;99.90;;;2.97;73.20;94410.56;5038792;28;20291;-68
2021/01/13 07:39:08;;;;;;;9.70;7.80;;;2.10;99.90;;;2.94;73.22;94424.06;5043146;28;20208;-67
2021/01/13 07:42:42;;;;;;;9.13;8.13;;;2.10;99.90;;;2.96;73.39;94423.84;5054987;28;20188;-67
2021/01/13 07:45:13;;;;;;;8.70;7.57;;;2.10;99.90;;;3.11;73.15;94427.06;4964264;28;20692;-67
2021/01/13 07:48:13;;;;;;;7.70;6.87;;;2.20;99.90;;;3.15;72.92;94419.59;4960722;28;20341;-65
2021/01/13 07:50:49;;;;;;;8.60;7.73;;;2.30;99.90;;;3.24;73.41;94434.88;4960406;28;20287;-69
2021/01/13 07:53:28;;;;;;;7.90;7.10;;;2.40;99.90;;;3.33;72.93;94449.34;4954602;28;20851;-65
2021/01/13 07:56:02;;;;;;;7.87;7.07;;;2.50;99.90;;;3.39;73.05;94450.34;4961944;28;20271;-68
2021/01/13 07:58:35;;;;;;;8.23;7.43;;;2.50;99.90;;;3.50;73.11;94445.25;4967785;28;20298;-67
2021/01/13 08:01:20;;;;;;;7.33;6.63;;;2.60;99.90;;;3.50;73.06;94444.44;4953967;28;20203;-68
2021/01/13 08:04:33;;;;;;;7.37;6.67;;;2.60;99.90;;;3.68;73.49;94457.69;4948958;28;20216;-68
2021/01/13 08:07:01;;;;;;;6.83;6.17;;;2.80;99.90;;;3.57;73.09;94442.59;4948652;29;20191;-70
2021/01/13 08:09:36;;;;;;;7.20;6.50;;;2.70;99.90;;;3.66;73.14;94464.94;4966318;28;20194;-68
2021/01/13 08:12:13;;;;;;;7.23;6.50;;;2.80;99.90;;;3.74;73.14;94469.16;4961293;28;20211;-68
2021/01/13 08:14:54;;;;;;;7.10;6.40;;;2.90;99.90;;;3.86;73.29;94481.38;4965726;28;20721;-68
2021/01/13 08:18:10;;;;;;;6.53;5.93;;;3.00;99.90;;;4.04;73.12;94478.88;4966696;28;20287;-66
2021/01/13 08:21:24;;;;;;;7.33;6.47;;;3.20;99.90;;;4.08;73.22;94464.34;4957521;28;20267;-68
2021/01/13 08:24:04;;;;;;;15.93;5.60;;;3.30;99.90;;;4.03;73.01;94460.72;5052203;28;20228;-66
2021/01/13 08:26:30;;;;;;;6.23;5.63;;;3.30;99.90;;;3.99;72.97;94463.00;5045685;28;21743;-65
2021/01/13 08:29:01;;;;;;;6.30;5.70;;;3.30;99.90;;;4.02;73.55;94474.88;5043411;28;20192;-65
2021/01/13 08:31:28;;;;;;;6.33;5.73;;;3.30;99.90;;;4.15;73.05;94487.91;5049016;28;21174;-64
2021/01/13 08:34:09;;;;;;;10.40;5.83;;;3.40;99.90;;;4.21;73.14;94484.44;5023134;28;20219;-69
2021/01/13 08:36:53;;;;;;;8.43;5.13;;;3.50;99.90;;;4.36;73.13;94494.66;5037957;28;20180;-70
2021/01/13 08:39:30;;;;;;;21.83;6.80;;;3.60;99.90;;;4.52;73.62;94481.00;5048875;28;20283;-68
2021/01/13 08:42:29;;;;;;;17.87;6.60;;;3.80;99.90;;;4.63;73.35;94501.34;5053208;28;20184;-69
2021/01/13 08:44:56;;;;;;;9.73;5.60;;;3.90;99.90;;;4.75;73.38;94483.06;5049436;28;20275;-70
2021/01/13 08:47:27;;;;;;;5.30;4.80;;;4.00;99.90;;;4.82;73.61;94489.06;5067562;28;20729;-69
2021/01/13 08:50:12;;;;;;;6.00;5.40;;;4.10;99.90;;;5.02;73.37;94494.94;5053162;28;20287;-70
2021/01/13 08:52:50;;;;;;;6.07;5.47;;;4.30;99.90;;;5.21;73.23;94482.63;5046546;28;20181;-68
2021/01/13 08:55:19;;;;;;;7.23;6.30;;;4.50;99.90;;;5.31;73.65;94477.69;5048065;28;20207;-69
2021/01/13 08:58:00;;;;;;;12.40;10.10;;;4.60;99.90;;;5.46;73.70;94493.94;5063126;28;20189;-71
2021/01/13 09:00:28;;;;;;;10.97;9.00;;;4.80;99.90;;;5.48;73.01;94497.13;5066657;28;20195;-71
2021/01/13 09:03:13;;;;;;;9.67;7.70;;;4.80;99.90;;;5.71;73.38;94507.78;5048516;28;20192;-70
2021/01/13 09:05:41;;;;;;;7.10;5.77;;;5.00;99.90;;;5.58;73.69;94484.28;5042119;28;20187;-71
2021/01/13 09:08:10;;;;;;;7.55;6.80;;;5.00;99.90;;;5.35;73.48;94477.06;5059005;28;20428;-65
2021/01/13 09:10:56;;;;;;;9.77;8.00;;;5.00;99.90;;;5.44;73.58;94506.50;5042820;28;20254;-65
2021/01/13 09:13:36;;;;;;;7.13;6.10;;;5.00;99.90;;;5.64;72.93;94522.88;5049960;28;20177;-71
2021/01/13 09:16:28;;;;;;;7.78;6.97;;;5.10;99.90;;;5.44;73.48;94502.03;5048132;28;20790;-71
2021/01/13 09:19:02;;;;;;;6.35;5.85;;;5.20;99.90;;;5.16;73.47;94496.44;5051138;28;20445;-71
2021/01/13 09:21:40;;;;;;;7.33;5.57;;;5.00;99.90;;;5.27;73.18;94505.44;5032643;28;20192;-69
2021/01/13 09:24:19;;;;;;;5.53;4.90;;;4.90;99.90;;;5.50;73.28;94516.13;5048075;28;20562;-71
2021/01/13 09:26:53;;;;;;;5.67;4.50;;;5.00;99.90;;;5.63;73.28;94508.91;5023040;28;20909;-70
2021/01/13 09:29:20;;;;;;;4.43;4.03;;;5.10;99.90;;;5.52;73.31;94493.03;5065003;28;20566;-69
2021/01/13 09:32:17;;;;;;;4.53;4.13;;;5.00;99.90;;;5.56;73.21;94536.28;5047320;28;20599;-69
2021/01/13 09:34:49;;;;;;;3.90;3.50;;;4.90;99.90;;;5.47;72.57;94511.31;5034983;28;20280;-69
2021/01/13 09:37:17;;;;;;;4.03;3.67;;;4.90;99.90;;;5.52;73.23;94509.63;5047968;28;20327;-70
2021/01/13 09:40:01;;;;;;;5.20;3.80;;;5.00;99.90;;;5.63;72.90;94535.19;5049025;28;20526;-70
2021/01/13 09:42:41;;;;;;;7.07;3.90;;;5.00;99.90;;;5.64;72.73;94549.16;5044849;28;20207;-70
2021/01/13 09:45:09;;;;;;;3.97;3.67;;;5.00;99.90;;;5.66;73.27;94533.97;5060983;28;20217;-70
2021/01/13 09:47:36;;;;;;;4.33;3.93;;;5.10;99.90;;;5.52;73.07;94545.63;5032555;28;20653;-70
2021/01/13 09:50:05;;;;;;;4.30;3.90;;;4.90;99.90;;;5.56;72.40;94552.88;5045537;28;20214;-71
2021/01/13 09:52:43;;;;;;;4.33;3.93;;;4.90;99.90;;;5.65;73.09;94556.81;5046495;28;20235;-71
2021/01/13 09:55:10;;;;;;;4.30;3.90;;;5.00;99.90;;;5.61;72.96;94537.22;5035964;28;20217;-71
2021/01/13 09:57:38;;;;;;;4.67;4.13;;;5.00;99.90;;;5.63;72.20;94550.97;5031290;28;20206;-74
2021/01/13 10:00:08;;;;;;;4.47;4.07;;;5.00;99.90;;;5.72;72.33;94542.78;5030944;28;20270;-72
2021/01/13 10:02:39;;;;;;;4.80;4.20;;;5.10;99.90;;;5.90;72.93;94541.00;5047976;28;20234;-74
2021/01/13 10:05:06;;;;;;;4.47;4.00;;;5.30;99.90;;;6.10;73.20;94543.41;5042833;28;20296;-73
2021/01/13 10:07:36;;;;;;;4.80;4.30;;;5.50;99.90;;;6.47;73.29;94558.13;5049574;28;20623;-73
2021/01/13 10:10:07;;;;;;;4.97;4.20;;;5.80;99.90;;;6.77;72.43;94544.94;5041530;28;20180;-72
2021/01/13 10:12:37;;;;;;;4.07;3.47;;;6.10;99.90;;;7.03;72.45;94549.81;5048027;28;20227;-70
2021/01/13 10:15:14;;;;;;;3.83;3.43;;;6.40;99.90;;;7.15;73.07;94552.47;5045088;28;20196;-71
2021/01/13 10:17:42;;;;;;;3.37;3.10;;;6.70;99.90;;;7.21;73.03;94536.56;5042022;28;20184;-70
2021/01/13 10:20:11;;;;;;;4.43;3.37;;;6.60;99.90;;;7.09;72.35;94530.44;5051228;28;20184;-69
2021/01/13 10:22:39;;;;;;;3.50;2.63;;;6.50;99.90;;;6.97;71.82;94527.00;5045977;28;20631;-69
2021/01/13 10:25:06;;;;;;;3.92;3.60;;;6.40;99.90;;;6.44;72.38;94531.44;5044024;28;20438;-67
2021/01/13 10:27:42;;;;;;;3.97;3.60;;;6.20;99.90;;;6.32;72.12;94528.75;5028630;28;20555;-66
2021/01/13 10:30:12;;;;;;;3.57;2.93;;;6.10;99.90;;;6.46;72.29;94534.63;5045830;28;20213;-68
2021/01/13 10:32:57;;;;;;;3.40;3.10;;;5.90;99.90;;;6.44;71.87;94534.06;5056146;28;20276;-68
2021/01/13 10:35:41;;;;;;;4.33;2.97;;;5.80;99.90;;;6.36;71.82;94552.78;5044251;28;20817;-67
2021/01/13 10:38:08;;;;;;;4.20;3.10;;;5.70;99.90;;;6.34;72.42;94542.50;5061915;28;20198;-66
2021/01/13 10:40:35;;;;;;;3.50;3.20;;;5.60;99.90;;;6.52;72.49;94558.25;5032108;28;20285;-70
2021/01/13 10:43:10;;;;;;;3.45;3.15;;;5.80;99.90;;;6.35;72.19;94549.34;5045231;28;20477;-70
2021/01/13 10:45:36;;;;;;;3.40;3.10;;;5.90;99.90;;;6.51;72.07;94550.59;5049221;28;20648;-69
2021/01/13 10:48:06;;;;;;;3.13;2.83;;;6.00;99.90;;;6.70;72.20;94555.56;5027693;28;20220;-69
2021/01/13 10:50:39;;;;;;;2.73;2.50;;;6.00;99.90;;;6.71;72.01;94530.03;5053094;28;20211;-68
2021/01/13 10:53:06;;;;;;;3.07;2.77;;;6.10;99.90;;;6.63;71.38;94544.31;5044178;28;20206;-68
2021/01/13 10:55:32;;;;;;;2.73;2.53;;;6.10;99.90;;;6.98;72.14;94552.34;5063992;28;20202;-67
2021/01/13 10:57:58;;;;;;;3.10;2.80;;;6.30;99.90;;;6.81;72.21;94525.03;5045085;28;20280;-68
2021/01/13 11:00:28;;;;;;;3.03;2.77;;;6.20;99.90;;;6.70;72.36;94515.25;5040583;28;20274;-69
2021/01/13 11:03:02;;;;;;;3.30;3.00;;;6.20;99.90;;;6.57;72.40;94521.53;5043891;28;20437;-66
2021/01/13 11:05:34;;;;;;;3.00;2.80;;;6.20;99.90;;;6.64;71.29;94537.22;5030472;28;20101;-67